Time;durP1;ratioP1;P1;durP2;ratioP2;P2;SDS_P1;SDS_P2;PMS_P1;PMS_P2;Temp;Humidity;BMP_temperature;BMP_pressure;BME280_temperature;BME280_humidity;BME280_pressure;Samples;Min_cycle;Max_cycle;Signal;HPM_P1;HPM_P2
2021/01/31 00:00:51;;;;;;;17.30;14.87;;;;;21.00;99199.00;;;;2078911;28;20260;-55
2021/01/31 00:01:52;;;;;;;17.37;13.90;;;;;21.00;99195.00;;;;2079263;28;20210;-54
2021/01/31 00:02:52;;;;;;;17.70;14.60;;;;;21.00;99195.00;;;;2079003;28;20214;-55
2021/01/31 00:03:52;;;;;;;19.70;15.17;;;;;21.00;99199.00;;;;2079284;28;20675;-55
2021/01/31 00:04:53;;;;;;;18.03;14.80;;;;;21.00;99208.00;;;;2077866;28;20308;-54
2021/01/31 00:05:54;;;;;;;19.50;15.23;;;;;20.90;99198.00;;;;2078051;28;20229;-56
2021/01/31 00:06:56;;;;;;;20.90;14.05;;;;;20.90;99207.00;;;;2079303;28;20221;-54
2021/01/31 00:07:56;;;;;;;16.85;13.68;;;;;20.90;99197.00;;;;2079343;28;20202;-55
2021/01/31 00:08:56;;;;;;;15.67;12.87;;;;;20.90;99206.00;;;;2078990;28;20233;-55
2021/01/31 00:09:57;;;;;;;15.27;12.47;;;;;20.90;99209.00;;;;2079145;28;20214;-55
2021/01/31 00:10:57;;;;;;;15.20;13.17;;;;;20.90;99211.00;;;;2078360;28;20281;-55
2021/01/31 00:11:58;;;;;;;16.93;13.50;;;;;20.90;99216.00;;;;2078841;28;20776;-54
2021/01/31 00:12:59;;;;;;;14.93;12.53;;;;;20.90;99211.00;;;;2078861;28;20202;-55
2021/01/31 00:13:59;;;;;;;14.50;12.97;;;;;20.90;99220.00;;;;2079227;28;20198;-54
2021/01/31 00:14:59;;;;;;;14.67;13.10;;;;;20.90;99222.00;;;;2078940;28;20699;-53
2021/01/31 00:16:00;;;;;;;15.00;12.50;;;;;20.90;99217.00;;;;2077808;28;20240;-55
2021/01/31 00:17:00;;;;;;;13.20;11.70;;;;;20.90;99208.00;;;;2079004;28;20221;-54
2021/01/31 00:18:01;;;;;;;13.40;12.00;;;;;20.90;99215.00;;;;2079214;28;20233;-54
2021/01/31 00:19:01;;;;;;;13.30;11.43;;;;;20.90;99201.00;;;;2078546;28;20308;-54
2021/01/31 00:20:02;;;;;;;15.13;12.97;;;;;20.90;99216.00;;;;2079036;28;20237;-54
2021/01/31 00:21:03;;;;;;;13.07;11.40;;;;;20.90;99204.00;;;;2078904;28;20287;-55
2021/01/31 00:22:03;;;;;;;12.43;11.13;;;;;20.90;99201.00;;;;2078963;28;20745;-55
2021/01/31 00:23:04;;;;;;;13.50;11.83;;;;;20.70;99206.00;;;;2078937;28;20328;-54
2021/01/31 00:24:05;;;;;;;14.23;11.27;;;;;20.90;99219.00;;;;2079390;28;20213;-55
2021/01/31 00:25:06;;;;;;;12.83;11.17;;;;;20.80;99219.00;;;;2078809;28;20639;-55
2021/01/31 00:26:06;;;;;;;14.07;12.05;;;;;20.90;99218.00;;;;2078046;28;20222;-54
2021/01/31 00:27:06;;;;;;;13.40;11.33;;;;;20.90;99226.00;;;;2079136;28;20264;-55
2021/01/31 00:28:07;;;;;;;12.87;11.57;;;;;20.80;99221.00;;;;2079057;28;20714;-54
2021/01/31 00:29:07;;;;;;;12.37;10.17;;;;;20.80;99218.00;;;;2078456;28;20870;-54
2021/01/31 00:30:19;;;;;;;12.03;10.80;;;;;20.80;99231.00;;;;2078952;28;20241;-54
2021/01/31 00:31:20;;;;;;;11.98;10.77;;;;;20.80;99224.00;;;;2078734;28;20229;-54
2021/01/31 00:32:24;;;;;;;14.17;11.17;;;;;20.80;99226.00;;;;2078293;28;20213;-54
2021/01/31 00:33:25;;;;;;;11.32;10.18;;;;;20.80;99226.00;;;;2077153;28;20218;-54
2021/01/31 00:34:26;;;;;;;11.10;9.85;;;;;20.80;99216.00;;;;2077811;28;20221;-55
2021/01/31 00:35:27;;;;;;;12.07;10.30;;;;;20.80;99222.00;;;;2078011;28;20363;-54
2021/01/31 00:36:28;;;;;;;11.07;8.82;;;;;20.80;99223.00;;;;2077770;28;20275;-54
2021/01/31 00:37:28;;;;;;;10.70;9.60;;;;;20.80;99223.00;;;;2078261;28;20206;-55
2021/01/31 00:38:28;;;;;;;11.80;9.73;;;;;20.80;99234.00;;;;2078417;28;20214;-55
2021/01/31 00:39:29;;;;;;;9.50;8.50;;;;;20.80;99234.00;;;;2078079;28;20217;-54
2021/01/31 00:40:29;;;;;;;10.40;8.90;;;;;20.80;99230.00;;;;2078232;28;20218;-54
2021/01/31 00:41:29;;;;;;;11.80;9.60;;;;;20.80;99237.00;;;;2077913;28;20590;-54
2021/01/31 00:42:30;;;;;;;10.40;8.57;;;;;20.80;99240.00;;;;2078253;28;20218;-53
2021/01/31 00:43:30;;;;;;;11.27;9.87;;;;;20.70;99238.00;;;;2078361;28;20862;-55
2021/01/31 00:44:30;;;;;;;10.73;9.60;;;;;20.70;99236.00;;;;2078237;28;20214;-54
2021/01/31 00:45:31;;;;;;;11.60;9.80;;;;;20.70;99239.00;;;;2077487;28;20220;-54
2021/01/31 00:46:33;;;;;;;8.90;8.03;;;;;20.80;99233.00;;;;2078343;28;20224;-54
2021/01/31 00:47:33;;;;;;;10.48;9.30;;;;;20.70;99249.00;;;;2078960;28;20214;-54
2021/01/31 00:48:34;;;;;;;11.30;9.60;;;;;20.80;99240.00;;;;2078829;28;20707;-54
2021/01/31 00:49:34;;;;;;;11.00;9.47;;;;;20.70;99246.00;;;;2079107;28;21049;-54
2021/01/31 00:50:36;;;;;;;10.30;9.30;;;;;20.70;99244.00;;;;2078821;28;20295;-54
2021/01/31 00:51:36;;;;;;;10.02;8.73;;;;;20.70;99246.00;;;;2078977;28;20220;-54
2021/01/31 00:52:36;;;;;;;12.60;9.27;;;;;20.70;99242.00;;;;2078547;28;20217;-54
2021/01/31 00:53:37;;;;;;;9.90;8.90;;;;;20.70;99255.00;;;;2079038;28;20214;-54
2021/01/31 00:54:37;;;;;;;9.10;8.20;;;;;20.70;99251.00;;;;2079139;28;20303;-54
2021/01/31 00:55:38;;;;;;;10.00;8.90;;;;;20.70;99248.00;;;;2077710;28;20226;-54
2021/01/31 00:56:38;;;;;;;9.20;8.30;;;;;20.70;99246.00;;;;2078571;28;20209;-55
2021/01/31 00:57:38;;;;;;;8.60;7.70;;;;;20.70;99255.00;;;;2078986;28;20214;-54
2021/01/31 00:58:39;;;;;;;9.90;8.90;;;;;20.70;99253.00;;;;2078731;28;20264;-54
2021/01/31 00:59:39;;;;;;;9.10;8.20;;;;;20.70;99254.00;;;;2078462;28;20229;-54
2021/01/31 01:00:40;;;;;;;7.43;6.73;;;;;20.70;99254.00;;;;2078882;28;20210;-55
2021/01/31 01:01:40;;;;;;;8.03;7.23;;;;;20.70;99260.00;;;;2078660;28;20206;-55
2021/01/31 01:02:40;;;;;;;8.90;7.90;;;;;20.70;99260.00;;;;2078462;28;20217;-54
2021/01/31 01:03:41;;;;;;;8.77;7.87;;;;;20.60;99252.00;;;;2078799;28;20214;-54
2021/01/31 01:04:44;;;;;;;7.40;6.70;;;;;20.60;99252.00;;;;2078033;28;20694;-54
2021/01/31 01:05:45;;;;;;;7.93;7.15;;;;;20.60;99253.00;;;;2077736;28;20335;-54
2021/01/31 01:06:45;;;;;;;7.10;6.40;;;;;20.60;99254.00;;;;2078420;28;20217;-54
2021/01/31 01:07:46;;;;;;;8.10;7.30;;;;;20.60;99249.00;;;;2078848;28;20240;-54
2021/01/31 01:08:46;;;;;;;7.17;6.43;;;;;20.60;99248.00;;;;2078646;28;20221;-54
2021/01/31 01:09:47;;;;;;;8.07;7.27;;;;;20.60;99258.00;;;;2078894;28;20222;-54
2021/01/31 01:10:47;;;;;;;7.37;6.63;;;;;20.60;99247.00;;;;2078401;28;20248;-54
2021/01/31 01:11:47;;;;;;;9.03;7.70;;;;;20.60;99252.00;;;;2078392;28;20733;-54
2021/01/31 01:12:48;;;;;;;7.00;6.33;;;;;20.60;99249.00;;;;2078279;28;20248;-54
2021/01/31 01:13:48;;;;;;;10.80;7.37;;;;;20.60;99248.00;;;;2073634;28;20225;-54
2021/01/31 01:14:48;;;;;;;6.67;5.97;;;;;20.60;99256.00;;;;2077991;28;20228;-54
2021/01/31 01:15:49;;;;;;;7.40;6.70;;;;;20.60;99258.00;;;;2077967;28;20221;-54
2021/01/31 01:16:49;;;;;;;8.67;7.77;;;;;20.60;99255.00;;;;2078781;28;20608;-54
2021/01/31 01:17:50;;;;;;;7.67;6.93;;;;;20.60;99264.00;;;;2078774;28;20210;-54
2021/01/31 01:18:50;;;;;;;7.73;6.93;;;;;20.60;99266.00;;;;2078862;28;20808;-54
2021/01/31 01:19:50;;;;;;;7.53;6.73;;;;;20.60;99252.00;;;;2078857;28;20210;-54
2021/01/31 01:20:51;;;;;;;7.60;6.47;;;;;20.60;99256.00;;;;2078535;28;20303;-55
2021/01/31 01:21:51;;;;;;;7.50;6.80;;;;;20.60;99251.00;;;;2070677;28;20242;-54
2021/01/31 01:22:51;;;;;;;7.50;6.80;;;;;20.60;99251.00;;;;2078141;28;21273;-54
2021/01/31 01:23:52;;;;;;;7.30;6.60;;;;;20.60;99242.00;;;;2078728;28;20272;-54
2021/01/31 01:24:52;;;;;;;6.67;6.07;;;;;20.60;99243.00;;;;2078460;28;20226;-55
2021/01/31 01:25:52;;;;;;;7.10;6.40;;;;;20.60;99243.00;;;;2077408;28;20239;-54
2021/01/31 01:26:53;;;;;;;6.97;6.10;;;;;20.50;99248.00;;;;2078047;28;20214;-54
2021/01/31 01:27:54;;;;;;;7.03;6.33;;;;;20.60;99251.00;;;;2074910;28;20215;-54
2021/01/31 01:28:54;;;;;;;7.87;6.30;;;;;20.50;99244.00;;;;2073693;28;20217;-54
2021/01/31 01:29:55;;;;;;;6.73;6.13;;;;;20.50;99246.00;;;;2074840;28;20473;-54
2021/01/31 01:30:56;;;;;;;6.53;5.93;;;;;20.50;99245.00;;;;2071197;28;20210;-54
2021/01/31 01:31:56;;;;;;;7.47;6.70;;;;;20.50;99243.00;;;;2078681;28;20947;-54
2021/01/31 01:32:57;;;;;;;7.20;6.03;;;;;20.50;99250.00;;;;2073779;28;20214;-58
2021/01/31 01:33:57;;;;;;;6.20;5.60;;;;;20.50;99253.00;;;;2069774;28;20249;-55
2021/01/31 01:34:57;;;;;;;6.23;5.60;;;;;20.50;99253.00;;;;2070454;28;20216;-55
2021/01/31 01:35:58;;;;;;;7.07;6.33;;;;;20.50;99251.00;;;;2068733;28;20214;-55
2021/01/31 01:36:58;;;;;;;6.50;5.90;;;;;20.50;99244.00;;;;2070415;28;20222;-56
2021/01/31 01:37:59;;;;;;;6.63;6.03;;;;;20.50;99246.00;;;;2070403;28;20290;-55
2021/01/31 01:38:59;;;;;;;6.57;5.97;;;;;20.50;99250.00;;;;2070518;28;20256;-55
2021/01/31 01:40:00;;;;;;;7.20;6.17;;;;;20.50;99253.00;;;;2070594;28;20366;-55
2021/01/31 01:41:01;;;;;;;7.03;6.33;;;;;20.50;99249.00;;;;2070426;28;20287;-55
2021/01/31 01:42:01;;;;;;;6.37;5.77;;;;;20.50;99240.00;;;;2068213;28;20461;-54
2021/01/31 01:43:02;;;;;;;6.40;5.80;;;;;20.50;99246.00;;;;2071726;28;20218;-54
2021/01/31 01:44:02;;;;;;;6.03;5.43;;;;;20.50;99250.00;;;;2078756;28;20273;-54
2021/01/31 01:45:04;;;;;;;5.20;4.80;;;;;20.50;99257.00;;;;2078674;28;20468;-54
2021/01/31 01:46:27;;;;;;;5.57;5.07;;;;;20.50;99251.00;;;;2077618;28;20221;-54
2021/01/31 01:47:28;;;;;;;5.60;5.03;;;;;20.50;99243.00;;;;2077891;28;20582;-54
2021/01/31 01:48:28;;;;;;;6.85;5.63;;;;;20.50;99243.00;;;;2073381;28;20271;-55
2021/01/31 01:49:31;;;;;;;5.90;5.30;;;;;20.50;99251.00;;;;2070011;28;20226;-55
2021/01/31 01:50:41;;;;;;;5.78;5.18;;;;;20.40;99243.00;;;;2069652;28;20269;-55
2021/01/31 01:51:48;;;;;;;5.38;4.90;;;;;20.40;99251.00;;;;2076497;28;20221;-54
2021/01/31 01:52:49;;;;;;;6.18;5.57;;;;;20.40;99254.00;;;;2070661;28;20211;-54
2021/01/31 01:53:49;;;;;;;6.00;5.50;;;;;20.40;99250.00;;;;2069509;28;20282;-54
2021/01/31 01:54:54;;;;;;;5.63;4.73;;;;;20.50;99259.00;;;;2078097;28;20240;-54
2021/01/31 01:56:06;;;;;;;5.30;4.80;;;;;20.40;99252.00;;;;2077206;28;20217;-55
2021/01/31 01:57:17;;;;;;;5.95;5.30;;;;;20.40;99257.00;;;;2077132;28;20220;-54
2021/01/31 01:58:18;;;;;;;5.88;5.28;;;;;20.50;99249.00;;;;2077874;28;20214;-54
2021/01/31 01:59:18;;;;;;;5.07;4.57;;;;;20.40;99246.00;;;;2078268;28;20844;-54
2021/01/31 02:00:19;;;;;;;5.30;4.80;;;;;20.40;99244.00;;;;2077977;28;20222;-54
2021/01/31 02:01:20;;;;;;;5.65;5.15;;;;;20.40;99243.00;;;;2065555;28;20230;-54
2021/01/31 02:02:20;;;;;;;4.90;4.40;;;;;20.40;99240.00;;;;2064422;28;20636;-54
2021/01/31 02:03:25;;;;;;;5.13;4.70;;;;;20.40;99251.00;;;;2077736;28;20229;-54
2021/01/31 02:04:27;;;;;;;5.13;4.63;;;;;20.40;99244.00;;;;2070837;28;20237;-54
2021/01/31 02:05:27;;;;;;;4.95;4.55;;;;;20.40;99248.00;;;;2053618;28;20216;-54
2021/01/31 02:06:28;;;;;;;5.53;5.03;;;;;20.40;99248.00;;;;2060905;28;20561;-54
2021/01/31 02:07:29;;;;;;;5.90;5.40;;;;;20.40;99252.00;;;;2069340;28;20249;-53
2021/01/31 02:08:29;;;;;;;5.40;4.83;;;;;20.30;99243.00;;;;2070439;28;20218;-54
2021/01/31 02:09:30;;;;;;;5.00;4.60;;;;;20.30;99260.00;;;;2070446;28;20218;-54
2021/01/31 02:10:30;;;;;;;5.53;5.03;;;;;20.30;99263.00;;;;2078243;28;20361;-55
2021/01/31 02:11:31;;;;;;;5.50;4.33;;;;;20.30;99263.00;;;;2078067;28;20236;-55
2021/01/31 02:12:31;;;;;;;5.40;4.83;;;;;20.40;99273.00;;;;2078327;28;20217;-55
2021/01/31 02:13:31;;;;;;;5.80;5.40;;;;;19.50;99264.00;;;;2069420;28;20217;-55
2021/01/31 02:14:33;;;;;;;5.60;5.20;;;;;18.90;99259.00;;;;2056681;28;20604;-54
2021/01/31 02:15:33;;;;;;;6.63;5.45;;;;;19.00;99260.00;;;;2064990;28;20219;-53
2021/01/31 02:16:59;;;;;;;5.80;5.30;;;;;19.30;99255.00;;;;2073412;28;20218;-53
2021/01/31 02:18:38;;;;;;;4.90;4.50;;;;;19.60;99259.00;;;;2078768;28;20221;-54
2021/01/31 02:20:13;;;;;;;9.77;4.97;;;;;19.70;99263.00;;;;2076628;28;20282;-54
2021/01/31 02:21:50;;;;;;;5.35;4.35;;;;;19.90;99266.00;;;;2067993;28;20211;-54
2021/01/31 02:23:15;;;;;;;9.27;4.72;;;;;20.00;99265.00;;;;2070232;28;20233;-54
2021/01/31 02:24:44;;;;;;;5.00;3.95;;;;;20.00;99267.00;;;;2076738;28;20307;-54
2021/01/31 02:26:12;;;;;;;6.95;4.50;;;;;20.00;99263.00;;;;2076080;28;20321;-54
2021/01/31 02:27:57;;;;;;;4.30;3.90;;;;;20.10;99273.00;;;;2068459;28;20222;-54
2021/01/31 02:29:12;;;;;;;4.85;4.35;;;;;20.10;99263.00;;;;2059199;28;20217;-54
2021/01/31 02:30:34;;;;;;;5.55;4.35;;;;;20.10;99266.00;;;;2078923;28;20279;-54
2021/01/31 02:32:05;;;;;;;6.90;3.95;;;;;20.10;99259.00;;;;2079219;28;20228;-54
2021/01/31 02:33:23;;;;;;;5.70;3.80;;;;;20.10;99265.00;;;;2071285;28;20222;-54
2021/01/31 02:34:57;;;;;;;5.15;3.97;;;;;20.10;99246.00;;;;2079462;28;20221;-54
2021/01/31 02:36:02;;;;;;;4.07;3.78;;;;;20.10;99255.00;;;;2078113;28;20221;-54
2021/01/31 02:37:50;;;;;;;4.47;4.00;;;;;20.10;99255.00;;;;2071420;28;20694;-54
2021/01/31 02:38:59;;;;;;;4.20;3.80;;;;;20.10;99260.00;;;;2054410;28;20342;-54
2021/01/31 02:40:12;;;;;;;4.30;3.60;;;;;20.10;99254.00;;;;2054149;28;20226;-54
2021/01/31 02:41:51;;;;;;;4.57;4.18;;;;;20.10;99262.00;;;;2044291;28;20274;-54
2021/01/31 02:42:54;;;;;;;6.15;3.95;;;;;20.10;99260.00;;;;2050317;28;20234;-54
2021/01/31 02:43:54;;;;;;;3.88;3.47;;;;;20.10;99259.00;;;;2054119;28;20223;-54
2021/01/31 02:45:07;;;;;;;8.80;4.10;;;;;20.10;99252.00;;;;2062155;28;20219;-54
2021/01/31 02:46:25;;;;;;;3.53;3.22;;;;;20.10;99250.00;;;;2056811;28;20751;-54
2021/01/31 02:47:26;;;;;;;4.07;3.60;;;;;20.10;99261.00;;;;2067873;28;20345;-53
2021/01/31 02:48:38;;;;;;;4.53;3.40;;;;;20.10;99259.00;;;;2063642;28;20219;-54
2021/01/31 02:49:40;;;;;;;3.53;3.22;;;;;20.10;99259.00;;;;2065060;28;20751;-54
2021/01/31 02:50:43;;;;;;;3.60;3.30;;;;;20.10;99258.00;;;;2067727;28;20313;-54
2021/01/31 02:51:54;;;;;;;3.70;3.40;;;;;20.10;99260.00;;;;2070007;28;20756;-54
2021/01/31 02:53:20;;;;;;;4.18;3.80;;;;;20.00;99246.00;;;;2072090;28;20939;-54
2021/01/31 02:54:24;;;;;;;3.65;3.38;;;;;20.00;99252.00;;;;2079027;28;20219;-54
2021/01/31 02:55:51;;;;;;;3.80;3.50;;;;;20.00;99249.00;;;;2066458;28;20227;-54
2021/01/31 02:56:55;;;;;;;3.60;3.30;;;;;20.00;99250.00;;;;2065954;28;20223;-55
2021/01/31 02:58:02;;;;;;;4.60;3.50;;;;;20.10;99249.00;;;;2071310;28;20225;-54
2021/01/31 02:59:06;;;;;;;4.22;3.88;;;;;20.10;99250.00;;;;2071883;28;20227;-54
2021/01/31 03:00:20;;;;;;;4.00;3.60;;;;;20.00;99249.00;;;;2068228;28;20229;-55
2021/01/31 03:01:26;;;;;;;4.75;3.47;;;;;20.00;99248.00;;;;2062242;28;20252;-54
2021/01/31 03:02:28;;;;;;;3.38;3.15;;;;;20.00;99249.00;;;;2063860;28;20222;-54
2021/01/31 03:03:35;;;;;;;3.67;3.38;;;;;20.00;99246.00;;;;2054289;28;20219;-54
2021/01/31 03:04:41;;;;;;;3.42;3.03;;;;;20.00;99247.00;;;;2061012;28;20301;-56
2021/01/31 03:05:44;;;;;;;3.72;3.42;;;;;20.00;99248.00;;;;2071427;28;20221;-55
2021/01/31 03:06:56;;;;;;;3.97;3.40;;;;;20.00;99255.00;;;;2078215;28;20213;-55
2021/01/31 03:08:06;;;;;;;3.70;3.40;;;;;20.00;99251.00;;;;2077534;28;20217;-54
2021/01/31 03:09:21;;;;;;;3.33;3.03;;;;;20.00;99246.00;;;;2079238;28;20694;-54
2021/01/31 03:10:29;;;;;;;3.35;3.05;;;;;20.00;99248.00;;;;2073509;28;20790;-54
2021/01/31 03:11:36;;;;;;;3.13;2.92;;;;;20.00;99238.00;;;;2077508;28;20232;-54
2021/01/31 03:12:39;;;;;;;3.15;2.95;;;;;20.00;99254.00;;;;2064631;28;20223;-54
2021/01/31 03:13:42;;;;;;;3.75;3.45;;;;;20.00;99249.00;;;;2069929;28;20243;-54
2021/01/31 03:14:44;;;;;;;3.63;3.35;;;;;20.00;99244.00;;;;2074072;28;20845;-54
2021/01/31 03:15:49;;;;;;;3.67;3.38;;;;;20.00;99249.00;;;;2067734;28;20249;-54
2021/01/31 03:17:17;;;;;;;3.25;3.05;;;;;20.00;99253.00;;;;2079156;28;20217;-54
2021/01/31 03:18:29;;;;;;;4.47;3.33;;;;;20.00;99248.00;;;;2074632;28;20209;-54
2021/01/31 03:19:34;;;;;;;3.25;3.00;;;;;20.00;99252.00;;;;2075654;28;20224;-54
2021/01/31 03:20:37;;;;;;;3.85;3.55;;;;;20.00;99254.00;;;;2078882;28;20218;-54
2021/01/31 03:21:38;;;;;;;3.47;3.17;;;;;20.00;99249.00;;;;2070834;28;20245;-58
2021/01/31 03:22:44;;;;;;;3.67;3.33;;;;;20.00;99238.00;;;;2062366;28;20208;-56
2021/01/31 03:23:48;;;;;;;3.63;3.28;;;;;20.00;99256.00;;;;2067424;28;21027;-54
2021/01/31 03:24:54;;;;;;;3.70;3.40;;;;;20.00;99244.00;;;;2062864;28;20218;-55
2021/01/31 03:25:59;;;;;;;2.97;2.78;;;;;19.90;99247.00;;;;2061860;28;20250;-54
2021/01/31 03:27:01;;;;;;;3.50;3.20;;;;;20.00;99260.00;;;;2063273;28;20306;-54
2021/01/31 03:28:02;;;;;;;3.65;3.35;;;;;19.90;99247.00;;;;2070438;28;20755;-54
2021/01/31 03:29:02;;;;;;;3.70;3.40;;;;;20.00;99246.00;;;;2071548;28;20249;-54
2021/01/31 03:30:07;;;;;;;3.37;3.07;;;;;19.90;99250.00;;;;2071330;28;20309;-54
2021/01/31 03:31:07;;;;;;;2.97;2.78;;;;;19.90;99247.00;;;;2069896;28;20245;-54
2021/01/31 03:32:14;;;;;;;3.37;3.07;;;;;19.90;99253.00;;;;2078275;28;20295;-54
2021/01/31 03:33:17;;;;;;;3.30;3.00;;;;;20.00;99248.00;;;;2070463;28;20224;-55
2021/01/31 03:34:19;;;;;;;3.03;2.72;;;;;20.00;99249.00;;;;2070392;28;20218;-54
2021/01/31 03:35:22;;;;;;;3.58;3.28;;;;;19.90;99252.00;;;;2069584;28;20215;-54
2021/01/31 03:36:24;;;;;;;3.20;3.00;;;;;20.00;99234.00;;;;2058493;28;20208;-54
2021/01/31 03:37:32;;;;;;;3.10;2.90;;;;;19.90;99246.00;;;;2070459;28;20238;-54
2021/01/31 03:38:38;;;;;;;3.50;3.30;;;;;19.90;99238.00;;;;2070556;28;20219;-54
2021/01/31 03:39:38;;;;;;;3.10;2.90;;;;;19.90;99239.00;;;;2067318;28;20217;-54
2021/01/31 03:40:40;;;;;;;3.60;3.30;;;;;19.90;99243.00;;;;2062009;28;20241;-54
2021/01/31 03:41:42;;;;;;;3.55;3.25;;;;;19.90;99237.00;;;;2069863;28;20215;-54
2021/01/31 03:42:43;;;;;;;3.03;2.83;;;;;19.90;99240.00;;;;2077638;28;20309;-54
2021/01/31 03:43:44;;;;;;;3.40;3.10;;;;;19.90;99247.00;;;;2077991;28;20213;-55
2021/01/31 03:44:44;;;;;;;3.67;3.37;;;;;19.90;99242.00;;;;2078804;28;20622;-55
2021/01/31 03:46:07;;;;;;;3.50;3.20;;;;;19.90;99239.00;;;;2077391;28;20218;-54
2021/01/31 03:47:13;;;;;;;3.42;3.17;;;;;19.90;99245.00;;;;2071807;28;20272;-54
2021/01/31 03:48:19;;;;;;;2.90;2.70;;;;;19.90;99234.00;;;;2066475;28;20222;-54
2021/01/31 03:49:27;;;;;;;3.17;2.97;;;;;19.90;99238.00;;;;2051374;28;20223;-54
2021/01/31 03:50:27;;;;;;;5.15;3.17;;;;;19.90;99244.00;;;;2064202;28;20218;-54
2021/01/31 03:51:28;;;;;;;3.03;2.83;;;;;19.90;99240.00;;;;2078813;28;20285;-54
2021/01/31 03:52:28;;;;;;;3.13;2.83;;;;;19.90;99241.00;;;;2078122;28;20275;-54
2021/01/31 03:53:29;;;;;;;2.73;2.60;;;;;19.90;99239.00;;;;2066615;28;20603;-54
2021/01/31 03:54:29;;;;;;;3.07;2.87;;;;;19.90;99246.00;;;;2066657;28;20235;-54
2021/01/31 03:55:29;;;;;;;2.80;2.60;;;;;19.90;99237.00;;;;2079325;28;20219;-54
2021/01/31 03:56:32;;;;;;;3.10;2.80;;;;;19.90;99236.00;;;;2078935;28;20232;-54
2021/01/31 03:57:34;;;;;;;3.15;2.95;;;;;19.90;99243.00;;;;2079512;28;20718;-54
2021/01/31 03:58:34;;;;;;;3.40;3.10;;;;;19.90;99232.00;;;;2078813;28;20250;-54
2021/01/31 03:59:39;;;;;;;3.40;3.17;;;;;19.90;99240.00;;;;2078833;28;20221;-54
2021/01/31 04:00:48;;;;;;;3.38;3.17;;;;;19.90;99231.00;;;;2078620;28;20285;-54
2021/01/31 04:01:48;;;;;;;4.10;3.80;;;;;19.90;99229.00;;;;2063717;28;20209;-54
2021/01/31 04:03:07;;;;;;;2.80;2.60;;;;;19.90;99236.00;;;;2062419;28;20218;-54
2021/01/31 04:04:17;;;;;;;3.22;3.03;;;;;19.90;99222.00;;;;2078402;28;20215;-54
2021/01/31 04:05:17;;;;;;;3.47;3.17;;;;;19.90;99237.00;;;;2070193;28;20207;-54
2021/01/31 04:06:19;;;;;;;3.40;3.10;;;;;19.90;99239.00;;;;2065668;28;20223;-54
2021/01/31 04:07:21;;;;;;;3.42;3.22;;;;;19.90;99233.00;;;;2081543;28;20221;-54
2021/01/31 04:08:22;;;;;;;3.10;2.90;;;;;19.80;99236.00;;;;2079231;28;20220;-54
2021/01/31 04:09:22;;;;;;;3.13;2.83;;;;;19.80;99245.00;;;;2078285;28;20832;-54
2021/01/31 04:10:23;;;;;;;3.03;2.83;;;;;19.80;99242.00;;;;2078007;28;20214;-54
2021/01/31 04:11:33;;;;;;;2.97;2.77;;;;;19.80;99245.00;;;;2078481;28;20315;-54
2021/01/31 04:12:36;;;;;;;3.20;3.00;;;;;19.80;99252.00;;;;2079034;28;20231;-54
2021/01/31 04:13:37;;;;;;;3.10;2.90;;;;;19.80;99257.00;;;;2078770;28;20230;-54
2021/01/31 04:15:14;;;;;;;3.10;2.80;;;;;19.80;99259.00;;;;2077346;28;20312;-54
2021/01/31 04:16:15;;;;;;;3.10;2.80;;;;;19.80;99268.00;;;;2072870;28;20219;-54
2021/01/31 04:17:15;;;;;;;3.03;2.83;;;;;19.80;99258.00;;;;2070514;28;20226;-54
2021/01/31 04:18:16;;;;;;;3.40;3.10;;;;;19.70;99260.00;;;;2077772;28;20206;-54
2021/01/31 04:19:17;;;;;;;3.40;3.13;;;;;19.80;99258.00;;;;2079273;28;20798;-54
2021/01/31 04:20:17;;;;;;;3.17;2.93;;;;;19.80;99262.00;;;;2078898;28;20802;-55
2021/01/31 04:21:18;;;;;;;3.87;3.17;;;;;19.80;99260.00;;;;2079141;28;20691;-54
2021/01/31 04:22:18;;;;;;;3.20;3.00;;;;;19.80;99258.00;;;;2078934;28;20288;-53
2021/01/31 04:23:19;;;;;;;3.30;3.10;;;;;19.80;99261.00;;;;2078817;28;20756;-54
2021/01/31 04:24:19;;;;;;;4.60;3.40;;;;;19.80;99254.00;;;;2079090;28;20212;-54
2021/01/31 04:25:19;;;;;;;3.60;3.30;;;;;19.80;99258.00;;;;2078305;28;20222;-54
2021/01/31 04:26:20;;;;;;;3.40;3.10;;;;;19.80;99266.00;;;;2078460;28;20217;-55
2021/01/31 04:27:20;;;;;;;3.00;2.80;;;;;19.80;99261.00;;;;2078692;28;20939;-54
2021/01/31 04:28:22;;;;;;;2.77;2.57;;;;;19.80;99260.00;;;;2078971;28;20232;-55
2021/01/31 04:29:23;;;;;;;2.90;2.70;;;;;19.80;99261.00;;;;2078250;28;20236;-54
2021/01/31 04:30:23;;;;;;;3.07;2.87;;;;;19.80;99266.00;;;;2077224;28;20214;-54
2021/01/31 04:31:26;;;;;;;3.27;3.07;;;;;19.80;99257.00;;;;2079093;28;20225;-54
2021/01/31 04:32:26;;;;;;;3.65;3.35;;;;;19.80;99262.00;;;;2078557;28;20224;-54
2021/01/31 04:33:26;;;;;;;2.97;2.77;;;;;19.80;99262.00;;;;2079024;28;20239;-54
2021/01/31 04:34:27;;;;;;;3.37;3.17;;;;;19.80;99265.00;;;;2078858;28;20210;-54
2021/01/31 04:35:27;;;;;;;3.03;2.83;;;;;19.50;99262.00;;;;2078586;28;20300;-54
2021/01/31 04:36:27;;;;;;;3.40;3.07;;;;;19.80;99265.00;;;;2078313;28;20199;-53
2021/01/31 04:37:28;;;;;;;2.80;2.60;;;;;19.80;99267.00;;;;2077513;28;20209;-53
2021/01/31 04:38:28;;;;;;;3.30;3.10;;;;;19.80;99258.00;;;;2078652;28;20255;-54
2021/01/31 04:39:28;;;;;;;2.73;2.53;;;;;19.80;99265.00;;;;2078986;28;20210;-54
2021/01/31 04:40:29;;;;;;;3.10;2.90;;;;;19.80;99267.00;;;;2078790;28;20582;-54
2021/01/31 04:41:37;;;;;;;2.80;2.60;;;;;19.80;99267.00;;;;2078997;28;20283;-54
2021/01/31 04:42:39;;;;;;;3.00;2.75;;;;;19.80;99271.00;;;;2065704;28;20956;-54
2021/01/31 04:43:39;;;;;;;3.50;3.20;;;;;19.80;99272.00;;;;2066666;28;20305;-54
2021/01/31 04:44:39;;;;;;;3.40;3.10;;;;;19.70;99274.00;;;;2078460;28;20272;-54
2021/01/31 04:45:40;;;;;;;3.10;2.90;;;;;19.70;99272.00;;;;2078186;28;20222;-54
2021/01/31 04:46:45;;;;;;;3.50;3.30;;;;;19.80;99274.00;;;;2078282;28;20228;-54
2021/01/31 04:48:24;;;;;;;3.20;3.00;;;;;19.80;99269.00;;;;2077665;28;20236;-54
2021/01/31 04:49:46;;;;;;;3.25;3.05;;;;;19.80;99275.00;;;;2074211;28;20228;-54
2021/01/31 04:51:11;;;;;;;3.40;3.20;;;;;19.70;99287.00;;;;2076229;28;20212;-54
2021/01/31 04:52:28;;;;;;;3.17;2.97;;;;;19.70;99280.00;;;;2076676;28;20216;-54
2021/01/31 04:53:57;;;;;;;3.50;3.20;;;;;19.70;99278.00;;;;2072005;28;20214;-54
2021/01/31 04:55:16;;;;;;;3.50;3.30;;;;;19.60;99284.00;;;;2066185;28;20221;-54
2021/01/31 04:56:52;;;;;;;3.33;3.13;;;;;19.70;99289.00;;;;2077600;28;20303;-54
2021/01/31 04:58:17;;;;;;;3.20;3.00;;;;;19.70;99285.00;;;;2076725;28;20271;-54
2021/01/31 04:59:45;;;;;;;3.35;3.15;;;;;19.70;99278.00;;;;2077859;28;20219;-54
2021/01/31 05:01:03;;;;;;;3.17;2.88;;;;;19.70;99281.00;;;;2063651;28;20215;-54
2021/01/31 05:02:06;;;;;;;3.63;3.42;;;;;19.70;99280.00;;;;2077461;28;20216;-55
2021/01/31 05:03:06;;;;;;;3.13;2.83;;;;;19.70;99277.00;;;;2077374;28;20283;-54
2021/01/31 05:04:10;;;;;;;3.53;3.23;;;;;19.70;99277.00;;;;2077369;28;20225;-55
2021/01/31 05:05:17;;;;;;;3.28;3.05;;;;;19.60;99282.00;;;;2077205;28;20299;-54
2021/01/31 05:06:17;;;;;;;3.33;3.03;;;;;19.60;99280.00;;;;2076288;28;20296;-54
2021/01/31 05:07:19;;;;;;;3.40;3.10;;;;;19.70;99280.00;;;;2077313;28;20795;-53
2021/01/31 05:08:22;;;;;;;3.20;3.00;;;;;19.70;99282.00;;;;2069412;28;20304;-54
2021/01/31 05:09:24;;;;;;;3.47;3.28;;;;;19.70;99284.00;;;;2065568;28;20222;-54
2021/01/31 05:10:24;;;;;;;3.28;3.08;;;;;19.70;99289.00;;;;2077459;28;20283;-54
2021/01/31 05:11:28;;;;;;;3.33;3.10;;;;;19.70;99280.00;;;;2077889;28;20559;-54
2021/01/31 05:13:07;;;;;;;3.05;2.85;;;;;19.70;99275.00;;;;2074952;28;20213;-54
2021/01/31 05:14:24;;;;;;;3.30;3.10;;;;;19.60;99276.00;;;;2060570;28;20211;-54
2021/01/31 05:15:28;;;;;;;2.92;2.72;;;;;19.60;99279.00;;;;2076314;28;20214;-54
2021/01/31 05:16:28;;;;;;;3.30;3.10;;;;;19.70;99280.00;;;;2063260;28;20794;-54
2021/01/31 05:17:29;;;;;;;3.60;3.30;;;;;19.70;99273.00;;;;2063338;28;20214;-55
2021/01/31 05:18:29;;;;;;;3.00;2.80;;;;;19.70;99280.00;;;;2074313;28;20706;-54
2021/01/31 05:19:31;;;;;;;3.03;2.83;;;;;19.70;99275.00;;;;2085676;28;20291;-54
2021/01/31 05:20:31;;;;;;;3.20;2.90;;;;;19.60;99273.00;;;;2072965;28;20233;-54
2021/01/31 05:21:33;;;;;;;3.23;3.03;;;;;19.60;99270.00;;;;2074561;28;20224;-54
2021/01/31 05:22:35;;;;;;;3.67;3.38;;;;;19.60;99275.00;;;;2069533;28;20222;-53
2021/01/31 05:23:38;;;;;;;3.10;2.80;;;;;19.60;99277.00;;;;2063928;28;20213;-54
2021/01/31 05:24:38;;;;;;;3.42;3.13;;;;;19.60;99287.00;;;;2068217;28;20224;-54
2021/01/31 05:25:38;;;;;;;3.67;3.37;;;;;19.60;99274.00;;;;2076387;28;20304;-54